Terminal Aerodrome Forecast
Issued by NWS Newport/Morehead City, NC

Home | Current Version | Previous Version | Graphics & Text | Print | Product List | Glossary On
Versions: 1 2 3 4 5 6 7 8 9 10 11 12 13 14 15 16 17 18
000
FTUS42 KMHX 030959 AAC
TAFEWN
TAF AMD
KEWN 030959Z 0310/0406 VRB03KT 4SM BR SCT050
     FM031300 29005KT P6SM SCT050
     FM031800 28006KT P6SM VCSH BKN050
     FM032300 19004KT P6SM SCT050=

USA.gov is the U.S. government's official web portal to all federal, state and local government web resources and services.